Latest Weather Observations for Blackall

IDQ60801

Issued at 10:42 pm EST Sunday 21 July 2019 (issued every 10 minutes, with the page automatically refreshed every 10 minutes)

About weather observations | Map of weather stations | Latest weather observations for QLD | Other Formats
Station Details ID: 036034 Name: BLACKALL AIRPORT Lat: -24.43 Lon: 145.43 Height: 281.3 m
Data from the previous 72 hours. | See also: Recent months at Blackall
Date/Time
EST
Temp
°C
App
Temp
°C
Dew
Point
°C
Rel
Hum
%
Delta-T
°C
Wind Press
QNH
hPa
Press
MSL
hPa
Rain since
9am
mm
Dir  Spd
km/h
Gust
km/h
Spd
kts
Gust
kts
21/10:30pm 12.9 9.5 4.1 55 4.0 ENE 11 13 6 7 1017.6 1017.4 0.0
21/10:00pm 12.1 8.9 3.1 54 4.0 ENE 9 11 5 6 1017.7 1017.5 0.0
21/09:30pm 14.5 11.7 5.0 53 4.5 ENE 9 13 5 7 1017.4 1017.1 0.0
21/09:00pm 13.8 12.6 4.4 53 4.4 CALM 0 0 0 0 1017.6 1017.4 0.0
21/08:30pm 13.8 11.4 4.4 53 4.4 N 6 9 3 5 1017.5 1017.3 0.0
21/08:00pm 14.8 12.2 4.2 49 5.0 ENE 7 9 4 5 1017.1 1016.8 0.0
21/07:30pm 15.7 13.3 4.4 47 5.4 ENE 6 7 3 4 1017.0 1016.7 0.0
21/07:00pm 17.1 14.5 4.4 43 6.1 ENE 7 9 4 5 1016.8 1016.5 0.0
21/06:30pm 18.5 16.0 5.0 41 6.6 ENE 7 9 4 5 1016.4 1016.1 0.0
21/06:00pm 20.0 17.2 5.3 38 7.3 NNE 9 13 5 7 1016.2 1015.9 0.0
21/05:30pm 21.7 18.9 5.2 34 8.3 N 9 11 5 6 1015.8 1015.5 0.0
21/05:00pm 22.9 19.7 5.3 32 8.9 N 11 17 6 9 1015.6 1015.3 0.0
21/04:30pm 23.4 19.9 5.3 31 9.2 N 13 22 7 12 1015.5 1015.2 0.0
21/04:00pm 23.9 21.5 5.3 30 9.5 NW 7 19 4 10 1015.4 1015.1 0.0
21/03:30pm 24.0 20.5 5.4 30 9.5 N 13 22 7 12 1015.2 1014.9 0.0
21/03:00pm 23.9 20.2 6.2 32 9.2 N 15 28 8 15 1015.3 1015.0 0.0
21/02:30pm 23.7 19.5 5.6 31 9.3 N 17 28 9 15 1015.7 1015.4 0.0
21/02:00pm 23.5 19.6 5.4 31 9.2 NNE 15 24 8 13 1016.1 1015.8 0.0
21/01:30pm 23.3 19.2 6.1 33 8.9 N 17 24 9 13 1016.6 1016.3 0.0
21/01:00pm 23.0 18.4 5.4 32 8.9 N 19 26 10 14 1017.3 1017.0 0.0
21/12:30pm 22.2 17.5 5.2 33 8.6 N 19 35 10 19 1018.1 1017.8 0.0
21/12:00pm 21.8 17.0 5.7 35 8.2 N 20 35 11 19 1018.5 1018.2 0.0
21/11:30am 21.4 16.3 6.1 37 7.8 N 22 37 12 20 1019.1 1018.8 0.0
21/11:00am 21.3 15.8 6.0 37 7.8 N 24 32 13 17 1019.7 1019.4 0.0
21/10:30am 20.5 15.6 6.8 41 7.0 N 22 30 12 16 1020.0 1019.7 0.0
21/10:00am 19.8 15.8 9.1 50 5.7 N 20 26 11 14 1020.4 1020.1 0.0
21/09:30am 17.9 13.1 9.0 56 4.7 NNE 24 32 13 17 1020.1 1019.8 0.0
21/09:00am 16.0 12.1 8.7 62 3.8 NNE 19 28 10 15 1020.3 1020.0 0.0
21/08:30am 13.7 9.4 7.2 65 3.2 NE 19 24 10 13 1020.0 1019.7 0.0
21/08:00am 11.1 7.9 5.2 67 2.7 NE 11 15 6 8 1020.0 1019.7 0.0
21/07:30am 9.0 6.3 3.8 70 2.3 NNE 7 9 4 5 1020.0 1019.7 0.0
21/07:00am 9.4 6.1 4.4 71 2.2 NE 11 13 6 7 1019.5 1019.2 0.0
21/06:30am 9.8 6.0 4.0 67 2.6 ENE 13 19 7 10 1019.2 1018.9 0.0
21/06:00am 9.7 5.5 3.7 66 2.7 ENE 15 19 8 10 1019.1 1018.8 0.0
21/05:30am 9.4 5.9 3.4 66 2.6 NE 11 13 6 7 1019.0 1018.7 0.0
21/05:00am 9.4 6.6 3.2 65 2.7 NE 7 11 4 6 1019.0 1018.7 0.0
21/04:30am 9.5 5.9 2.8 63 2.9 NE 11 15 6 8 1018.8 1018.5 0.0
21/04:00am 9.3 4.7 1.7 59 3.2 ENE 15 17 8 9 1018.9 1018.6 0.0
21/03:30am 9.1 5.3 1.5 59 3.2 NE 11 13 6 7 1019.1 1018.8 0.0
21/03:00am 8.0 3.9 0.0 57 3.2 E 11 13 6 7 1018.9 1018.6 0.0
21/02:30am 8.8 5.2 0.3 55 3.5 E 9 9 5 5 1019.3 1019.0 0.0
21/02:00am 8.5 4.9 0.5 57 3.2 E 9 11 5 6 1019.6 1019.3 0.0
21/01:30am 7.3 5.2 -0.6 57 3.1 CALM 0 0 0 0 1019.8 1019.5 0.0
21/01:00am 8.3 4.6 -0.2 55 3.4 E 9 11 5 6 1020.0 1019.7 0.0
21/12:30am 7.7 4.3 -0.8 55 3.3 ESE 7 9 4 5 1020.1 1019.8 0.0
21/12:00am 8.3 5.0 -0.2 55 3.4 E 7 11 4 6 1020.1 1019.8 0.0
 
Date/Time
EST
Temp
°C
App
Temp
°C
Dew
Point
°C
Rel
Hum
%
Delta-T
°C
Wind Press
QNH
hPa
Press
MSL
hPa
Rain since
9am
mm
Dir  Spd
km/h
Gust
km/h
Spd
kts
Gust
kts
20/11:30pm 9.2 6.4 -0.4 51 3.9 E 4 6 2 3 1020.1 1019.8 0.0
20/11:00pm 10.5 7.4 0.0 48 4.3 E 6 7 3 4 1020.3 1020.0 0.0
20/10:30pm 10.4 6.6 -0.7 46 4.5 E 9 11 5 6 1020.3 1020.0 0.0
20/10:00pm 11.8 8.1 0.0 44 4.9 E 9 11 5 6 1020.4 1020.1 0.0
20/09:30pm 11.2 7.8 -0.6 44 4.8 NE 7 9 4 5 1020.3 1020.0 0.0
20/09:00pm 12.5 8.8 0.0 42 5.2 NNE 9 13 5 7 1020.4 1020.1 0.0
20/08:30pm 13.6 9.5 -0.1 39 5.8 NNE 11 13 6 7 1020.1 1019.8 0.0
20/08:00pm 14.1 9.9 -0.7 36 6.2 NNE 11 15 6 8 1019.9 1019.6 0.0
20/07:30pm 14.9 11.1 -0.8 34 6.6 NE 9 13 5 7 1019.5 1019.2 0.0
20/07:00pm 14.9 11.0 -1.6 32 6.8 NE 9 11 5 6 1019.1 1018.8 0.0
20/06:30pm 16.5 12.7 -1.1 30 7.5 NNE 9 11 5 6 1018.8 1018.5 0.0
20/06:00pm 17.9 13.6 -1.3 27 8.2 N 11 13 6 7 1018.6 1018.3 0.0
20/05:30pm 20.3 15.2 -2.1 22 9.7 NNE 15 19 8 10 1018.5 1018.2 0.0
20/05:00pm 21.6 16.8 -2.3 20 10.4 NNE 13 19 7 10 1018.3 1018.0 0.0
20/04:30pm 22.2 17.5 -1.8 20 10.6 NNE 13 20 7 11 1018.2 1017.9 0.0
20/04:00pm 22.4 17.2 -3.1 18 11.0 NNE 15 24 8 13 1018.2 1017.9 0.0
20/03:30pm 22.9 17.6 -3.4 17 11.3 NE 15 26 8 14 1018.3 1018.0 0.0
20/03:00pm 22.4 16.1 -3.8 17 11.1 NNE 20 28 11 15 1018.5 1018.2 0.0
20/02:30pm 22.7 16.7 -2.8 18 11.1 NNE 19 26 10 14 1018.8 1018.5 0.0
20/02:00pm 22.3 16.6 -3.9 17 11.1 NE 17 28 9 15 1019.1 1018.8 0.0
20/01:30pm 22.3 16.5 -4.7 16 11.3 NE 17 26 9 14 1019.5 1019.2 0.0
20/01:00pm 21.9 15.7 -3.5 18 10.8 NNE 20 28 11 15 1020.1 1019.8 0.0
20/12:30pm 21.8 15.8 -2.8 19 10.6 NE 19 30 10 16 1020.7 1020.5 0.0
20/12:00pm 21.1 15.6 -2.0 21 10.0 NNE 17 30 9 16 1021.3 1021.1 0.0
20/11:30am 20.0 13.5 -2.3 22 9.5 NE 22 30 12 16 1021.9 1021.6 0.0
20/11:00am 20.0 13.6 -1.7 23 9.4 NNE 22 32 12 17 1022.2 1021.9 0.0
20/10:30am 19.6 12.8 -2.1 23 9.3 NE 24 37 13 20 1022.5 1022.2 0.0
20/10:00am 18.4 11.7 -1.4 26 8.5 NE 24 33 13 18 1022.7 1022.4 0.0
20/09:30am 15.9 10.0 -0.8 32 7.1 NE 20 32 11 17 1022.5 1022.2 0.0
20/09:00am 13.1 7.3 -1.2 37 5.8 NE 19 28 10 15 1022.3 1022.0 0.0
20/08:30am 10.4 6.6 -0.4 47 4.4 E 9 13 5 7 1022.2 1021.9 0.0
20/08:00am 7.0 3.5 -1.7 54 3.3 ESE 7 11 4 6 1021.9 1021.6 0.0
20/07:30am 4.1 0.4 -2.5 62 2.4 ESE 7 9 4 5 1021.7 1021.4 0.0
20/07:00am 3.8 0.1 -2.6 63 2.3 ESE 7 9 4 5 1021.1 1020.9 0.0
20/06:30am 3.8 0.3 -2.8 62 2.3 ESE 6 7 3 4 1020.7 1020.5 0.0
20/06:00am 4.5 0.9 -2.4 61 2.5 ESE 7 7 4 4 1020.6 1020.4 0.0
20/05:30am 4.4 0.8 -2.4 61 2.5 SE 7 9 4 5 1020.6 1020.4 0.0
20/05:00am 4.9 1.2 -2.7 58 2.7 ESE 7 7 4 4 1020.5 1020.2 0.0
20/04:30am 5.3 1.8 -2.8 56 2.9 SE 6 7 3 4 1020.3 1020.0 0.0
20/04:00am 6.2 2.6 -2.4 54 3.2 SE 7 9 4 5 1020.3 1020.0 0.0
20/03:30am 6.0 2.0 -2.3 55 3.1 ESE 9 11 5 6 1020.5 1020.2 0.0
20/03:00am 6.0 2.0 -2.6 54 3.1 SE 9 11 5 6 1020.5 1020.2 0.0
20/02:30am 7.0 3.6 -2.2 52 3.5 ESE 6 9 3 5 1020.5 1020.2 0.0
20/02:00am 6.9 3.2 -2.5 51 3.5 SE 7 9 4 5 1020.8 1020.6 0.0
20/01:30am 7.8 4.2 -2.2 49 3.8 SE 7 7 4 4 1020.8 1020.6 0.0
20/01:00am 6.8 2.3 -2.9 50 3.6 SE 11 13 6 7 1020.9 1020.7 0.0
20/12:30am 7.4 3.0 -2.3 50 3.6 SSE 11 13 6 7 1021.0 1020.8 0.0
20/12:00am 7.9 3.9 -2.1 49 3.8 ESE 9 11 5 6 1021.2 1021.0 0.0
 
Date/Time
EST
Temp
°C
App
Temp
°C
Dew
Point
°C
Rel
Hum
%
Delta-T
°C
Wind Press
QNH
hPa
Press
MSL
hPa
Rain since
9am
mm
Dir  Spd
km/h
Gust
km/h
Spd
kts
Gust
kts
19/11:30pm 6.8 2.8 -2.1 53 3.3 SSE 9 11 5 6 1021.4 1021.2 0.0
19/11:00pm 6.4 2.4 -2.2 54 3.2 SSE 9 11 5 6 1021.2 1021.0 0.0
19/10:30pm 6.7 2.7 -1.9 54 3.2 SSE 9 11 5 6 1020.9 1020.7 0.0
19/10:00pm 7.3 3.3 -2.2 51 3.6 SSE 9 11 5 6 1020.8 1020.6 0.0
19/09:30pm 9.2 5.2 -2.4 44 4.4 SE 9 9 5 5 1020.6 1020.4 0.0
19/09:00pm 10.6 6.6 -2.1 41 5.0 SSE 9 11 5 6 1020.5 1020.2 0.0
19/08:30pm 11.5 7.5 -2.0 39 5.4 SSE 9 11 5 6 1020.2 1019.9 0.0
19/08:00pm 11.9 7.8 -2.7 36 5.7 SSE 9 9 5 5 1020.1 1019.8 0.0
19/07:30pm 13.5 9.5 -2.4 33 6.4 SE 9 11 5 6 1019.9 1019.6 0.0
19/07:00pm 13.4 9.3 -2.9 32 6.4 SE 9 11 5 6 1019.8 1019.5 0.0
19/06:30pm 16.1 12.0 -3.4 26 7.9 SSE 9 9 5 5 1019.5 1019.2 0.0
19/06:00pm 18.1 14.0 -3.3 23 8.8 SE 9 11 5 6 1019.2 1018.9 0.0
19/05:30pm 19.6 15.0 -3.9 20 9.7 ESE 11 13 6 7 1018.9 1018.6 0.0
19/05:00pm 20.8 15.7 -5.1 17 10.5 SE 13 20 7 11 1019.0 1018.7 0.0
19/04:30pm 21.2 16.2 -4.0 18 10.5 SE 13 24 7 13 1018.9 1018.6 0.0
19/04:00pm 21.6 15.8 -4.5 17 10.8 SSE 17 22 9 12 1019.0 1018.7 0.0
19/03:30pm 21.5 16.1 -4.5 17 10.8 ESE 15 22 8 12 1018.9 1018.6 0.0
19/03:00pm 21.5 16.6 -3.1 19 10.5 ESE 13 20 7 11 1019.1 1018.8 0.0
19/02:30pm 21.3 17.3 -1.9 21 10.1 SE 9 19 5 10 1019.3 1019.0 0.0
19/02:00pm 21.0 16.3 -1.5 22 9.8 SSE 13 24 7 13 1019.6 1019.3 0.0
19/01:30pm 20.2 15.8 -2.2 22 9.6 SSE 11 28 6 15 1019.9 1019.6 0.0
19/01:00pm 19.9 15.3 -1.2 24 9.2 SE 13 20 7 11 1020.2 1019.9 0.0
19/12:30pm 19.1 14.7 0.2 28 8.4 ESE 13 20 7 11 1020.7 1020.5 0.0
19/12:00pm 19.0 14.7 1.1 30 8.1 ESE 13 22 7 12 1021.3 1021.1 0.0
19/11:30am 18.0 13.4 1.5 33 7.5 ESE 15 24 8 13 1022.1 1021.8 0.0
19/11:00am 16.9 12.6 1.0 34 7.1 SE 13 20 7 11 1022.7 1022.4 0.0
19/10:30am 16.8 11.5 1.7 36 6.8 SE 19 26 10 14 1023.2 1022.9 0.0
19/10:00am 16.1 11.2 2.2 39 6.3 E 17 22 9 12 1023.0 1022.7 0.0
19/09:30am 14.9 11.1 1.8 41 5.8 E 11 15 6 8 1023.0 1022.7 0.0
19/09:00am 12.8 9.4 1.8 47 4.8 ESE 9 15 5 8 1023.0 1022.7 0.0
19/08:30am 9.8 6.1 0.2 51 3.9 ESE 9 13 5 7 1022.9 1022.6 0.0
19/08:00am 7.5 3.4 -0.2 58 3.0 SE 11 13 6 7 1022.6 1022.3 0.0
19/07:30am 5.5 1.0 -0.5 65 2.3 SE 13 13 7 7 1022.3 1022.0 0.0
19/07:00am 4.3 0.8 -1.3 67 2.1 SE 7 9 4 5 1022.0 1021.7 0.0
19/06:30am 5.2 1.0 -1.0 64 2.3 SE 11 15 6 8 1021.5 1021.3 0.0
19/06:00am 4.8 0.6 -1.0 66 2.2 SE 11 15 6 8 1021.2 1021.0 0.0
19/05:30am 3.9 -0.4 -1.3 69 1.9 SE 11 13 6 7 1020.8 1020.6 0.0
19/05:00am 2.4 -2.0 -2.3 71 1.7 SE 11 13 6 7 1020.6 1020.4 0.0
19/04:30am 2.5 -1.5 -2.2 71 1.7 ESE 9 11 5 6 1020.7 1020.5 0.0
19/04:00am 3.6 0.2 -2.3 65 2.1 ESE 6 7 3 4 1020.8 1020.6 0.0
19/03:30am 4.6 0.7 -1.4 65 2.2 ESE 9 11 5 6 1020.7 1020.5 0.0
19/03:00am 4.4 0.5 -1.8 64 2.3 SE 9 9 5 5 1020.7 1020.5 0.0
19/02:30am 5.4 1.5 -1.5 61 2.6 ESE 9 11 5 6 1020.7 1020.5 0.0
19/02:00am 5.2 1.0 -0.8 65 2.3 ESE 11 13 6 7 1020.8 1020.6 0.0
19/01:30am 4.9 1.3 -1.8 62 2.5 SE 7 7 4 4 1021.0 1020.8 0.0
19/01:00am 6.2 2.7 -1.7 57 3.0 SE 7 9 4 5 1020.9 1020.7 0.0
19/12:30am 7.3 3.1 -1.1 55 3.2 SE 11 13 6 7 1021.0 1020.8 0.0
19/12:00am 6.6 2.7 -1.8 55 3.2 S 9 9 5 5 1021.2 1021.0 0.0
 
Date/Time
EST
Temp
°C
App
Temp
°C
Dew
Point
°C
Rel
Hum
%
Delta-T
°C
Wind Press
QNH
hPa
Press
MSL
hPa
Rain since
9am
mm
Dir  Spd
km/h
Gust
km/h
Spd
kts
Gust
kts
18/11:30pm 8.8 5.0 -1.0 50 3.9 SE 9 11 5 6 1021.3 1021.1 0.0
18/11:00pm 10.2 6.8 -0.9 46 4.4 SE 7 7 4 4 1021.3 1021.1 0.0

Other formats

Comma delimited format used in spreadsheet applications
http://www.bom.gov.au/fwo/IDQ60801/IDQ60801.95351.axf

JavaScript Object Notation format (JSON) in row-major order
http://www.bom.gov.au/fwo/IDQ60801/IDQ60801.95351.json

Data quality

Most of these data are generated automatically and are frequently updated. Quality checks on data are not normally performed. It is possible for incorrect values to appear. Refer to information at About Latest Weather Observations and please check the disclaimer before using these data.